sensor_id;sensor_type;location;lat;lon;timestamp;P1;durP1;ratioP1;P2;durP2;ratioP2
5674;SDS011;2860;54.284;10.158;2023-10-09T00:00:15;1.25;;;1.25;;
5674;SDS011;2860;54.284;10.158;2023-10-09T00:03:00;3.72;;;1.60;;
5674;SDS011;2860;54.284;10.158;2023-10-09T00:05:26;1.42;;;1.33;;
5674;SDS011;2860;54.284;10.158;2023-10-09T00:08:04;1.65;;;1.55;;
5674;SDS011;2860;54.284;10.158;2023-10-09T00:10:29;1.63;;;1.63;;
5674;SDS011;2860;54.284;10.158;2023-10-09T00:13:09;1.92;;;1.40;;
5674;SDS011;2860;54.284;10.158;2023-10-09T00:15:35;1.52;;;1.42;;
5674;SDS011;2860;54.284;10.158;2023-10-09T00:18:01;1.80;;;1.50;;
5674;SDS011;2860;54.284;10.158;2023-10-09T00:20:29;1.60;;;1.60;;
5674;SDS011;2860;54.284;10.158;2023-10-09T00:22:56;1.38;;;1.38;;
5674;SDS011;2860;54.284;10.158;2023-10-09T00:25:23;1.50;;;1.50;;
5674;SDS011;2860;54.284;10.158;2023-10-09T00:27:54;2.92;;;1.77;;
5674;SDS011;2860;54.284;10.158;2023-10-09T00:30:20;2.15;;;1.52;;
5674;SDS011;2860;54.284;10.158;2023-10-09T00:32:54;2.35;;;2.17;;
5674;SDS011;2860;54.284;10.158;2023-10-09T00:35:32;2.28;;;2.17;;
5674;SDS011;2860;54.284;10.158;2023-10-09T00:38:01;1.85;;;1.83;;
5674;SDS011;2860;54.284;10.158;2023-10-09T00:40:49;1.80;;;1.70;;
5674;SDS011;2860;54.284;10.158;2023-10-09T00:43:28;3.35;;;1.48;;
5674;SDS011;2860;54.284;10.158;2023-10-09T00:45:54;2.03;;;1.75;;
5674;SDS011;2860;54.284;10.158;2023-10-09T00:48:21;4.60;;;1.63;;
5674;SDS011;2860;54.284;10.158;2023-10-09T00:50:58;2.25;;;1.33;;
5674;SDS011;2860;54.284;10.158;2023-10-09T00:53:25;1.88;;;1.58;;
5674;SDS011;2860;54.284;10.158;2023-10-09T00:56:01;1.70;;;1.70;;
5674;SDS011;2860;54.284;10.158;2023-10-09T00:58:49;1.77;;;1.58;;
5674;SDS011;2860;54.284;10.158;2023-10-09T01:01:26;1.58;;;1.40;;
5674;SDS011;2860;54.284;10.158;2023-10-09T01:04:15;1.23;;;1.23;;
5674;SDS011;2860;54.284;10.158;2023-10-09T01:06:44;1.42;;;1.38;;
5674;SDS011;2860;54.284;10.158;2023-10-09T01:09:12;1.73;;;1.63;;
5674;SDS011;2860;54.284;10.158;2023-10-09T01:11:39;2.25;;;1.65;;
5674;SDS011;2860;54.284;10.158;2023-10-09T01:14:28;1.58;;;1.40;;
5674;SDS011;2860;54.284;10.158;2023-10-09T01:16:55;1.30;;;1.30;;
5674;SDS011;2860;54.284;10.158;2023-10-09T01:19:22;1.00;;;1.00;;
5674;SDS011;2860;54.284;10.158;2023-10-09T01:21:52;1.52;;;1.42;;
5674;SDS011;2860;54.284;10.158;2023-10-09T01:24:18;2.08;;;1.20;;
5674;SDS011;2860;54.284;10.158;2023-10-09T01:26:45;2.38;;;1.30;;
5674;SDS011;2860;54.284;10.158;2023-10-09T01:31:42;6.22;;;1.30;;
5674;SDS011;2860;54.284;10.158;2023-10-09T01:34:27;1.75;;;1.15;;
5674;SDS011;2860;54.284;10.158;2023-10-09T01:37:10;1.10;;;1.02;;
5674;SDS011;2860;54.284;10.158;2023-10-09T01:39:43;3.65;;;1.25;;
5674;SDS011;2860;54.284;10.158;2023-10-09T01:42:13;2.38;;;1.10;;
5674;SDS011;2860;54.284;10.158;2023-10-09T01:44:48;5.25;;;1.40;;
5674;SDS011;2860;54.284;10.158;2023-10-09T01:47:14;1.70;;;1.60;;
5674;SDS011;2860;54.284;10.158;2023-10-09T01:49:43;1.60;;;1.50;;
5674;SDS011;2860;54.284;10.158;2023-10-09T01:52:09;1.30;;;1.20;;
5674;SDS011;2860;54.284;10.158;2023-10-09T01:54:42;1.20;;;1.20;;
5674;SDS011;2860;54.284;10.158;2023-10-09T01:57:13;2.88;;;1.20;;
5674;SDS011;2860;54.284;10.158;2023-10-09T01:59:41;0.95;;;0.95;;
5674;SDS011;2860;54.284;10.158;2023-10-09T02:02:12;1.17;;;1.10;;
5674;SDS011;2860;54.284;10.158;2023-10-09T02:07:32;3.00;;;1.42;;
5674;SDS011;2860;54.284;10.158;2023-10-09T02:10:09;3.50;;;1.40;;
5674;SDS011;2860;54.284;10.158;2023-10-09T02:12:47;1.50;;;1.20;;
5674;SDS011;2860;54.284;10.158;2023-10-09T02:15:17;2.58;;;1.73;;
5674;SDS011;2860;54.284;10.158;2023-10-09T02:18:02;1.40;;;1.30;;
5674;SDS011;2860;54.284;10.158;2023-10-09T02:20:41;1.27;;;1.17;;
5674;SDS011;2860;54.284;10.158;2023-10-09T02:23:09;1.23;;;1.10;;
5674;SDS011;2860;54.284;10.158;2023-10-09T02:25:38;1.63;;;1.52;;
5674;SDS011;2860;54.284;10.158;2023-10-09T02:28:09;1.63;;;1.58;;
5674;SDS011;2860;54.284;10.158;2023-10-09T02:30:44;1.52;;;1.42;;
5674;SDS011;2860;54.284;10.158;2023-10-09T02:33:16;1.50;;;1.40;;
5674;SDS011;2860;54.284;10.158;2023-10-09T02:35:53;2.53;;;1.48;;
5674;SDS011;2860;54.284;10.158;2023-10-09T02:38:20;3.03;;;2.00;;
5674;SDS011;2860;54.284;10.158;2023-10-09T02:40:52;6.10;;;1.85;;
5674;SDS011;2860;54.284;10.158;2023-10-09T02:43:30;2.08;;;1.70;;
5674;SDS011;2860;54.284;10.158;2023-10-09T02:46:09;5.22;;;2.10;;
5674;SDS011;2860;54.284;10.158;2023-10-09T02:48:54;1.90;;;1.73;;
5674;SDS011;2860;54.284;10.158;2023-10-09T02:51:24;1.60;;;1.60;;
5674;SDS011;2860;54.284;10.158;2023-10-09T02:53:51;3.53;;;1.88;;
5674;SDS011;2860;54.284;10.158;2023-10-09T02:56:17;2.42;;;1.65;;
5674;SDS011;2860;54.284;10.158;2023-10-09T02:58:49;2.00;;;1.95;;
5674;SDS011;2860;54.284;10.158;2023-10-09T03:01:17;1.67;;;1.67;;
5674;SDS011;2860;54.284;10.158;2023-10-09T03:03:43;1.98;;;1.98;;
5674;SDS011;2860;54.284;10.158;2023-10-09T03:06:10;3.80;;;1.95;;
5674;SDS011;2860;54.284;10.158;2023-10-09T03:08:37;1.52;;;1.48;;
5674;SDS011;2860;54.284;10.158;2023-10-09T03:11:03;1.80;;;1.70;;
5674;SDS011;2860;54.284;10.158;2023-10-09T03:13:31;1.50;;;1.38;;
5674;SDS011;2860;54.284;10.158;2023-10-09T03:15:58;1.30;;;1.30;;
5674;SDS011;2860;54.284;10.158;2023-10-09T03:18:27;1.73;;;1.67;;
5674;SDS011;2860;54.284;10.158;2023-10-09T03:20:53;1.98;;;1.88;;
5674;SDS011;2860;54.284;10.158;2023-10-09T03:23:18;1.73;;;1.30;;
5674;SDS011;2860;54.284;10.158;2023-10-09T03:25:44;2.97;;;1.98;;
5674;SDS011;2860;54.284;10.158;2023-10-09T03:28:10;1.95;;;1.80;;
5674;SDS011;2860;54.284;10.158;2023-10-09T03:30:37;2.83;;;2.00;;
5674;SDS011;2860;54.284;10.158;2023-10-09T03:33:05;2.05;;;1.90;;
5674;SDS011;2860;54.284;10.158;2023-10-09T03:35:31;2.88;;;2.60;;
5674;SDS011;2860;54.284;10.158;2023-10-09T03:37:59;2.58;;;2.47;;
5674;SDS011;2860;54.284;10.158;2023-10-09T03:40:45;3.70;;;2.28;;
5674;SDS011;2860;54.284;10.158;2023-10-09T03:43:14;2.55;;;2.45;;
5674;SDS011;2860;54.284;10.158;2023-10-09T03:45:39;2.08;;;1.98;;
5674;SDS011;2860;54.284;10.158;2023-10-09T03:48:17;2.47;;;2.00;;
5674;SDS011;2860;54.284;10.158;2023-10-09T03:50:47;2.58;;;2.38;;
5674;SDS011;2860;54.284;10.158;2023-10-09T03:53:13;2.58;;;2.30;;
5674;SDS011;2860;54.284;10.158;2023-10-09T03:55:39;5.78;;;3.10;;
5674;SDS011;2860;54.284;10.158;2023-10-09T03:58:06;7.20;;;4.50;;
5674;SDS011;2860;54.284;10.158;2023-10-09T04:00:32;6.13;;;4.35;;
5674;SDS011;2860;54.284;10.158;2023-10-09T04:03:06;7.00;;;5.30;;
5674;SDS011;2860;54.284;10.158;2023-10-09T04:05:32;5.95;;;4.70;;
5674;SDS011;2860;54.284;10.158;2023-10-09T04:07:57;9.90;;;5.57;;
5674;SDS011;2860;54.284;10.158;2023-10-09T04:10:37;5.47;;;5.07;;
5674;SDS011;2860;54.284;10.158;2023-10-09T04:13:10;11.35;;;6.82;;
5674;SDS011;2860;54.284;10.158;2023-10-09T04:15:37;6.30;;;5.50;;
5674;SDS011;2860;54.284;10.158;2023-10-09T04:18:07;8.68;;;6.38;;
5674;SDS011;2860;54.284;10.158;2023-10-09T04:20:39;6.95;;;5.25;;
5674;SDS011;2860;54.284;10.158;2023-10-09T04:23:24;6.07;;;5.15;;
5674;SDS011;2860;54.284;10.158;2023-10-09T04:26:00;5.97;;;5.40;;
5674;SDS011;2860;54.284;10.158;2023-10-09T04:28:35;4.63;;;4.25;;
5674;SDS011;2860;54.284;10.158;2023-10-09T04:31:01;7.03;;;5.78;;
5674;SDS011;2860;54.284;10.158;2023-10-09T04:33:31;5.47;;;4.97;;
5674;SDS011;2860;54.284;10.158;2023-10-09T04:36:06;5.90;;;5.45;;
5674;SDS011;2860;54.284;10.158;2023-10-09T04:38:51;6.15;;;5.57;;
5674;SDS011;2860;54.284;10.158;2023-10-09T04:41:24;4.93;;;4.72;;
5674;SDS011;2860;54.284;10.158;2023-10-09T04:43:53;5.22;;;4.85;;
5674;SDS011;2860;54.284;10.158;2023-10-09T04:46:42;4.97;;;4.65;;
5674;SDS011;2860;54.284;10.158;2023-10-09T04:49:30;5.50;;;5.13;;
5674;SDS011;2860;54.284;10.158;2023-10-09T04:52:10;7.53;;;4.82;;
5674;SDS011;2860;54.284;10.158;2023-10-09T04:54:45;5.85;;;4.45;;
5674;SDS011;2860;54.284;10.158;2023-10-09T04:57:28;5.22;;;4.50;;
5674;SDS011;2860;54.284;10.158;2023-10-09T04:59:54;5.82;;;4.45;;
5674;SDS011;2860;54.284;10.158;2023-10-09T05:02:23;4.50;;;4.20;;
5674;SDS011;2860;54.284;10.158;2023-10-09T05:04:49;5.93;;;5.20;;
5674;SDS011;2860;54.284;10.158;2023-10-09T05:07:37;5.03;;;4.55;;
5674;SDS011;2860;54.284;10.158;2023-10-09T05:10:19;9.52;;;4.47;;
5674;SDS011;2860;54.284;10.158;2023-10-09T05:12:50;4.25;;;4.05;;
5674;SDS011;2860;54.284;10.158;2023-10-09T05:15:24;4.85;;;4.43;;
5674;SDS011;2860;54.284;10.158;2023-10-09T05:17:54;5.28;;;4.88;;
5674;SDS011;2860;54.284;10.158;2023-10-09T05:20:22;4.57;;;4.28;;
5674;SDS011;2860;54.284;10.158;2023-10-09T05:22:48;4.75;;;4.45;;
5674;SDS011;2860;54.284;10.158;2023-10-09T05:25:24;5.22;;;4.72;;
5674;SDS011;2860;54.284;10.158;2023-10-09T05:28:18;5.22;;;4.88;;
5674;SDS011;2860;54.284;10.158;2023-10-09T05:30:56;4.30;;;3.95;;
5674;SDS011;2860;54.284;10.158;2023-10-09T05:33:55;4.05;;;3.63;;
5674;SDS011;2860;54.284;10.158;2023-10-09T05:36:26;4.55;;;4.32;;
5674;SDS011;2860;54.284;10.158;2023-10-09T05:38:52;4.03;;;3.67;;
5674;SDS011;2860;54.284;10.158;2023-10-09T05:41:26;4.50;;;4.10;;
5674;SDS011;2860;54.284;10.158;2023-10-09T05:44:10;4.72;;;4.43;;
5674;SDS011;2860;54.284;10.158;2023-10-09T05:46:54;7.63;;;5.40;;
5674;SDS011;2860;54.284;10.158;2023-10-09T05:49:38;6.15;;;5.55;;
5674;SDS011;2860;54.284;10.158;2023-10-09T05:52:30;5.13;;;4.75;;
5674;SDS011;2860;54.284;10.158;2023-10-09T05:55:05;4.50;;;4.20;;
5674;SDS011;2860;54.284;10.158;2023-10-09T05:57:52;5.38;;;4.53;;
5674;SDS011;2860;54.284;10.158;2023-10-09T06:00:39;6.90;;;4.20;;
5674;SDS011;2860;54.284;10.158;2023-10-09T06:03:23;5.95;;;5.45;;
5674;SDS011;2860;54.284;10.158;2023-10-09T06:05:51;5.25;;;4.85;;
5674;SDS011;2860;54.284;10.158;2023-10-09T06:08:29;4.78;;;4.28;;
5674;SDS011;2860;54.284;10.158;2023-10-09T06:11:08;3.75;;;3.55;;
5674;SDS011;2860;54.284;10.158;2023-10-09T06:13:54;4.43;;;4.20;;
5674;SDS011;2860;54.284;10.158;2023-10-09T06:16:40;4.93;;;4.47;;
5674;SDS011;2860;54.284;10.158;2023-10-09T06:19:10;4.53;;;4.13;;
5674;SDS011;2860;54.284;10.158;2023-10-09T06:21:37;3.88;;;3.58;;
5674;SDS011;2860;54.284;10.158;2023-10-09T06:24:05;3.65;;;3.55;;
5674;SDS011;2860;54.284;10.158;2023-10-09T06:26:40;3.80;;;3.65;;
5674;SDS011;2860;54.284;10.158;2023-10-09T06:29:24;4.38;;;3.88;;
5674;SDS011;2860;54.284;10.158;2023-10-09T06:32:09;3.72;;;3.47;;
5674;SDS011;2860;54.284;10.158;2023-10-09T06:34:41;3.50;;;3.22;;
5674;SDS011;2860;54.284;10.158;2023-10-09T06:37:10;5.63;;;3.35;;
5674;SDS011;2860;54.284;10.158;2023-10-09T06:39:48;3.35;;;3.05;;
5674;SDS011;2860;54.284;10.158;2023-10-09T06:42:20;3.20;;;3.00;;
5674;SDS011;2860;54.284;10.158;2023-10-09T06:45:01;2.88;;;2.75;;
5674;SDS011;2860;54.284;10.158;2023-10-09T06:47:41;4.32;;;3.15;;
5674;SDS011;2860;54.284;10.158;2023-10-09T06:50:34;2.85;;;2.72;;
5674;SDS011;2860;54.284;10.158;2023-10-09T06:53:26;3.10;;;2.75;;
5674;SDS011;2860;54.284;10.158;2023-10-09T06:56:11;2.22;;;1.95;;
5674;SDS011;2860;54.284;10.158;2023-10-09T06:58:48;6.85;;;2.95;;
5674;SDS011;2860;54.284;10.158;2023-10-09T07:01:14;4.10;;;2.85;;
5674;SDS011;2860;54.284;10.158;2023-10-09T07:03:52;2.58;;;2.15;;
5674;SDS011;2860;54.284;10.158;2023-10-09T07:06:18;4.85;;;2.80;;
5674;SDS011;2860;54.284;10.158;2023-10-09T07:09:11;1.90;;;1.80;;
5674;SDS011;2860;54.284;10.158;2023-10-09T07:14:07;2.65;;;2.00;;
5674;SDS011;2860;54.284;10.158;2023-10-09T07:16:58;4.22;;;1.67;;
5674;SDS011;2860;54.284;10.158;2023-10-09T07:19:45;1.48;;;1.38;;
5674;SDS011;2860;54.284;10.158;2023-10-09T07:22:11;2.30;;;2.03;;
5674;SDS011;2860;54.284;10.158;2023-10-09T07:24:47;2.95;;;1.73;;
5674;SDS011;2860;54.284;10.158;2023-10-09T07:27:23;2.20;;;2.10;;
5674;SDS011;2860;54.284;10.158;2023-10-09T07:30:09;1.65;;;1.65;;
5674;SDS011;2860;54.284;10.158;2023-10-09T07:35:21;2.95;;;1.50;;
5674;SDS011;2860;54.284;10.158;2023-10-09T07:38:10;1.88;;;1.77;;
5674;SDS011;2860;54.284;10.158;2023-10-09T07:40:53;3.08;;;1.95;;
5674;SDS011;2860;54.284;10.158;2023-10-09T07:46:08;1.73;;;1.70;;
5674;SDS011;2860;54.284;10.158;2023-10-09T07:48:53;2.25;;;2.20;;
5674;SDS011;2860;54.284;10.158;2023-10-09T07:51:23;2.50;;;1.85;;
5674;SDS011;2860;54.284;10.158;2023-10-09T07:53:56;2.58;;;1.90;;
5674;SDS011;2860;54.284;10.158;2023-10-09T07:56:25;2.13;;;1.73;;
5674;SDS011;2860;54.284;10.158;2023-10-09T07:58:55;2.45;;;1.65;;
5674;SDS011;2860;54.284;10.158;2023-10-09T08:01:25;6.47;;;1.50;;
5674;SDS011;2860;54.284;10.158;2023-10-09T08:03:53;3.20;;;1.80;;
5674;SDS011;2860;54.284;10.158;2023-10-09T08:06:39;1.83;;;1.58;;
5674;SDS011;2860;54.284;10.158;2023-10-09T08:09:09;2.25;;;1.70;;
5674;SDS011;2860;54.284;10.158;2023-10-09T08:11:38;2.00;;;1.90;;
5674;SDS011;2860;54.284;10.158;2023-10-09T08:14:10;1.63;;;1.55;;
5674;SDS011;2860;54.284;10.158;2023-10-09T08:16:45;3.28;;;1.70;;
5674;SDS011;2860;54.284;10.158;2023-10-09T08:19:11;4.13;;;1.83;;
5674;SDS011;2860;54.284;10.158;2023-10-09T08:21:55;3.20;;;1.50;;
5674;SDS011;2860;54.284;10.158;2023-10-09T08:24:41;1.90;;;1.80;;
5674;SDS011;2860;54.284;10.158;2023-10-09T08:27:09;2.03;;;1.92;;
5674;SDS011;2860;54.284;10.158;2023-10-09T08:29:53;4.00;;;1.63;;
5674;SDS011;2860;54.284;10.158;2023-10-09T08:32:39;1.55;;;1.45;;
5674;SDS011;2860;54.284;10.158;2023-10-09T08:35:05;2.50;;;1.52;;
5674;SDS011;2860;54.284;10.158;2023-10-09T08:37:54;1.90;;;1.45;;
5674;SDS011;2860;54.284;10.158;2023-10-09T08:40:32;1.85;;;1.80;;
5674;SDS011;2860;54.284;10.158;2023-10-09T08:43:12;4.60;;;1.77;;
5674;SDS011;2860;54.284;10.158;2023-10-09T08:45:40;2.72;;;1.70;;
5674;SDS011;2860;54.284;10.158;2023-10-09T08:48:09;1.77;;;1.67;;
5674;SDS011;2860;54.284;10.158;2023-10-09T08:50:40;4.47;;;1.63;;
5674;SDS011;2860;54.284;10.158;2023-10-09T08:53:07;2.92;;;2.55;;
5674;SDS011;2860;54.284;10.158;2023-10-09T08:55:35;2.25;;;1.80;;
5674;SDS011;2860;54.284;10.158;2023-10-09T08:58:02;1.88;;;1.77;;
5674;SDS011;2860;54.284;10.158;2023-10-09T09:00:30;4.82;;;1.90;;
5674;SDS011;2860;54.284;10.158;2023-10-09T09:02:58;2.97;;;2.67;;
5674;SDS011;2860;54.284;10.158;2023-10-09T09:05:25;4.03;;;2.55;;
5674;SDS011;2860;54.284;10.158;2023-10-09T09:07:54;2.33;;;2.13;;
5674;SDS011;2860;54.284;10.158;2023-10-09T09:10:27;1.95;;;1.95;;
5674;SDS011;2860;54.284;10.158;2023-10-09T09:13:15;4.93;;;1.90;;
5674;SDS011;2860;54.284;10.158;2023-10-09T09:15:46;2.60;;;2.20;;
5674;SDS011;2860;54.284;10.158;2023-10-09T09:18:12;9.45;;;2.78;;
5674;SDS011;2860;54.284;10.158;2023-10-09T09:20:42;3.03;;;2.72;;
5674;SDS011;2860;54.284;10.158;2023-10-09T09:23:12;3.65;;;2.20;;
5674;SDS011;2860;54.284;10.158;2023-10-09T09:25:47;2.05;;;1.88;;
5674;SDS011;2860;54.284;10.158;2023-10-09T09:28:13;7.70;;;3.05;;
5674;SDS011;2860;54.284;10.158;2023-10-09T09:30:46;8.95;;;2.80;;
5674;SDS011;2860;54.284;10.158;2023-10-09T09:33:20;3.40;;;3.10;;
5674;SDS011;2860;54.284;10.158;2023-10-09T09:36:04;2.92;;;2.60;;
5674;SDS011;2860;54.284;10.158;2023-10-09T09:38:32;2.70;;;2.50;;
5674;SDS011;2860;54.284;10.158;2023-10-09T09:41:29;4.03;;;2.40;;
5674;SDS011;2860;54.284;10.158;2023-10-09T09:43:58;4.78;;;3.42;;
5674;SDS011;2860;54.284;10.158;2023-10-09T09:46:30;8.73;;;4.07;;
5674;SDS011;2860;54.284;10.158;2023-10-09T09:49:01;6.90;;;4.18;;
5674;SDS011;2860;54.284;10.158;2023-10-09T09:51:31;3.63;;;3.33;;
5674;SDS011;2860;54.284;10.158;2023-10-09T09:53:57;5.55;;;4.22;;
5674;SDS011;2860;54.284;10.158;2023-10-09T09:56:26;6.97;;;3.90;;
5674;SDS011;2860;54.284;10.158;2023-10-09T09:58:53;4.78;;;3.30;;
5674;SDS011;2860;54.284;10.158;2023-10-09T10:01:23;5.40;;;3.58;;
5674;SDS011;2860;54.284;10.158;2023-10-09T10:03:58;3.80;;;2.65;;
5674;SDS011;2860;54.284;10.158;2023-10-09T10:06:29;4.35;;;2.38;;
5674;SDS011;2860;54.284;10.158;2023-10-09T10:08:57;2.75;;;2.65;;
5674;SDS011;2860;54.284;10.158;2023-10-09T10:12:05;3.25;;;2.90;;
5674;SDS011;2860;54.284;10.158;2023-10-09T10:14:17;2.50;;;2.25;;
5674;SDS011;2860;54.284;10.158;2023-10-09T10:17:06;2.78;;;2.58;;
5674;SDS011;2860;54.284;10.158;2023-10-09T10:19:59;4.97;;;2.90;;
5674;SDS011;2860;54.284;10.158;2023-10-09T10:22:42;2.53;;;2.40;;
5674;SDS011;2860;54.284;10.158;2023-10-09T10:25:37;4.63;;;3.40;;
5674;SDS011;2860;54.284;10.158;2023-10-09T10:30:50;3.03;;;2.92;;
5674;SDS011;2860;54.284;10.158;2023-10-09T10:33:16;3.45;;;3.03;;
5674;SDS011;2860;54.284;10.158;2023-10-09T10:35:42;2.90;;;2.70;;
5674;SDS011;2860;54.284;10.158;2023-10-09T10:38:26;3.00;;;2.90;;
5674;SDS011;2860;54.284;10.158;2023-10-09T10:41:17;1.92;;;1.92;;
5674;SDS011;2860;54.284;10.158;2023-10-09T10:43:47;3.00;;;2.80;;
5674;SDS011;2860;54.284;10.158;2023-10-09T10:46:14;2.67;;;2.50;;
5674;SDS011;2860;54.284;10.158;2023-10-09T10:48:43;2.58;;;2.45;;
5674;SDS011;2860;54.284;10.158;2023-10-09T10:51:13;2.40;;;2.35;;
5674;SDS011;2860;54.284;10.158;2023-10-09T10:53:52;2.60;;;2.50;;
5674;SDS011;2860;54.284;10.158;2023-10-09T10:56:25;2.67;;;2.40;;
5674;SDS011;2860;54.284;10.158;2023-10-09T10:59:00;2.80;;;2.60;;
5674;SDS011;2860;54.284;10.158;2023-10-09T11:01:35;2.38;;;2.28;;
5674;SDS011;2860;54.284;10.158;2023-10-09T11:04:16;2.55;;;2.45;;
5674;SDS011;2860;54.284;10.158;2023-10-09T11:07:00;3.53;;;2.53;;
5674;SDS011;2860;54.284;10.158;2023-10-09T11:09:56;2.85;;;2.75;;
5674;SDS011;2860;54.284;10.158;2023-10-09T11:12:31;2.55;;;2.45;;
5674;SDS011;2860;54.284;10.158;2023-10-09T11:15:11;3.25;;;3.05;;
5674;SDS011;2860;54.284;10.158;2023-10-09T11:18:02;4.45;;;4.00;;
5674;SDS011;2860;54.284;10.158;2023-10-09T11:20:36;3.63;;;3.42;;
5674;SDS011;2860;54.284;10.158;2023-10-09T11:23:03;3.08;;;2.88;;
5674;SDS011;2860;54.284;10.158;2023-10-09T11:25:35;2.95;;;2.85;;
5674;SDS011;2860;54.284;10.158;2023-10-09T11:28:18;2.25;;;2.15;;
5674;SDS011;2860;54.284;10.158;2023-10-09T11:30:55;5.10;;;2.20;;
5674;SDS011;2860;54.284;10.158;2023-10-09T11:33:41;2.33;;;2.20;;
5674;SDS011;2860;54.284;10.158;2023-10-09T11:36:11;5.75;;;5.35;;
5674;SDS011;2860;54.284;10.158;2023-10-09T11:38:37;3.70;;;3.50;;
5674;SDS011;2860;54.284;10.158;2023-10-09T11:41:13;2.78;;;2.67;;
5674;SDS011;2860;54.284;10.158;2023-10-09T11:43:52;3.08;;;2.20;;
5674;SDS011;2860;54.284;10.158;2023-10-09T11:46:19;2.40;;;2.30;;
5674;SDS011;2860;54.284;10.158;2023-10-09T11:49:05;2.47;;;2.47;;
5674;SDS011;2860;54.284;10.158;2023-10-09T11:52:07;2.83;;;2.83;;
5674;SDS011;2860;54.284;10.158;2023-10-09T11:54:39;3.25;;;3.05;;
5674;SDS011;2860;54.284;10.158;2023-10-09T11:57:04;3.03;;;2.63;;
5674;SDS011;2860;54.284;10.158;2023-10-09T11:59:30;3.00;;;2.67;;
5674;SDS011;2860;54.284;10.158;2023-10-09T12:02:03;2.60;;;2.50;;
5674;SDS011;2860;54.284;10.158;2023-10-09T12:04:29;2.28;;;2.17;;
5674;SDS011;2860;54.284;10.158;2023-10-09T12:06:55;2.50;;;2.30;;
5674;SDS011;2860;54.284;10.158;2023-10-09T12:09:31;3.72;;;2.20;;
5674;SDS011;2860;54.284;10.158;2023-10-09T12:11:59;1.92;;;1.83;;
5674;SDS011;2860;54.284;10.158;2023-10-09T12:14:25;4.55;;;2.80;;
5674;SDS011;2860;54.284;10.158;2023-10-09T12:16:58;1.83;;;1.83;;
5674;SDS011;2860;54.284;10.158;2023-10-09T12:19:24;1.65;;;1.65;;
5674;SDS011;2860;54.284;10.158;2023-10-09T12:21:49;2.03;;;1.90;;
5674;SDS011;2860;54.284;10.158;2023-10-09T12:24:17;2.50;;;2.40;;
5674;SDS011;2860;54.284;10.158;2023-10-09T12:26:44;1.83;;;1.83;;
5674;SDS011;2860;54.284;10.158;2023-10-09T12:29:11;1.83;;;1.73;;
5674;SDS011;2860;54.284;10.158;2023-10-09T12:31:36;2.10;;;2.10;;
5674;SDS011;2860;54.284;10.158;2023-10-09T12:34:02;2.53;;;2.53;;
5674;SDS011;2860;54.284;10.158;2023-10-09T12:36:28;2.40;;;2.40;;
5674;SDS011;2860;54.284;10.158;2023-10-09T12:38:53;2.33;;;2.22;;
5674;SDS011;2860;54.284;10.158;2023-10-09T12:41:23;2.08;;;2.00;;
5674;SDS011;2860;54.284;10.158;2023-10-09T12:43:58;2.67;;;2.58;;
5674;SDS011;2860;54.284;10.158;2023-10-09T12:46:24;1.80;;;1.80;;
5674;SDS011;2860;54.284;10.158;2023-10-09T12:48:50;2.08;;;2.08;;
5674;SDS011;2860;54.284;10.158;2023-10-09T12:51:19;2.53;;;2.35;;
5674;SDS011;2860;54.284;10.158;2023-10-09T12:53:50;2.15;;;2.05;;
5674;SDS011;2860;54.284;10.158;2023-10-09T12:56:22;2.15;;;2.05;;
5674;SDS011;2860;54.284;10.158;2023-10-09T12:58:48;3.05;;;1.88;;
5674;SDS011;2860;54.284;10.158;2023-10-09T13:01:21;2.10;;;1.90;;
5674;SDS011;2860;54.284;10.158;2023-10-09T13:03:47;1.38;;;1.38;;
5674;SDS011;2860;54.284;10.158;2023-10-09T13:06:15;0.98;;;0.98;;
5674;SDS011;2860;54.284;10.158;2023-10-09T13:08:48;1.48;;;1.48;;
5674;SDS011;2860;54.284;10.158;2023-10-09T13:11:14;1.40;;;1.30;;
5674;SDS011;2860;54.284;10.158;2023-10-09T13:13:42;1.27;;;1.25;;
5674;SDS011;2860;54.284;10.158;2023-10-09T13:16:12;1.05;;;1.05;;
5674;SDS011;2860;54.284;10.158;2023-10-09T13:18:39;1.50;;;1.45;;
5674;SDS011;2860;54.284;10.158;2023-10-09T13:21:06;2.25;;;1.50;;
5674;SDS011;2860;54.284;10.158;2023-10-09T13:23:31;1.40;;;1.40;;
5674;SDS011;2860;54.284;10.158;2023-10-09T13:26:05;1.02;;;1.02;;
5674;SDS011;2860;54.284;10.158;2023-10-09T13:28:42;1.45;;;1.33;;
5674;SDS011;2860;54.284;10.158;2023-10-09T13:31:10;1.23;;;1.23;;
5674;SDS011;2860;54.284;10.158;2023-10-09T13:33:39;1.45;;;1.45;;
5674;SDS011;2860;54.284;10.158;2023-10-09T13:36:05;1.30;;;1.30;;
5674;SDS011;2860;54.284;10.158;2023-10-09T13:38:41;1.40;;;1.40;;
5674;SDS011;2860;54.284;10.158;2023-10-09T13:41:10;1.38;;;1.38;;
5674;SDS011;2860;54.284;10.158;2023-10-09T13:43:39;1.38;;;1.38;;
5674;SDS011;2860;54.284;10.158;2023-10-09T13:46:06;1.02;;;1.02;;
5674;SDS011;2860;54.284;10.158;2023-10-09T13:48:33;2.75;;;1.02;;
5674;SDS011;2860;54.284;10.158;2023-10-09T13:51:04;1.40;;;1.40;;
5674;SDS011;2860;54.284;10.158;2023-10-09T13:53:32;0.80;;;0.80;;
5674;SDS011;2860;54.284;10.158;2023-10-09T13:56:01;1.10;;;0.80;;
5674;SDS011;2860;54.284;10.158;2023-10-09T13:58:27;0.77;;;0.77;;
5674;SDS011;2860;54.284;10.158;2023-10-09T14:00:53;0.95;;;0.88;;
5674;SDS011;2860;54.284;10.158;2023-10-09T14:03:18;1.13;;;1.02;;
5674;SDS011;2860;54.284;10.158;2023-10-09T14:05:52;1.20;;;1.20;;
5674;SDS011;2860;54.284;10.158;2023-10-09T14:08:22;1.73;;;1.63;;
5674;SDS011;2860;54.284;10.158;2023-10-09T14:10:48;1.95;;;1.30;;
5674;SDS011;2860;54.284;10.158;2023-10-09T14:13:15;1.40;;;1.40;;
5674;SDS011;2860;54.284;10.158;2023-10-09T14:15:41;1.65;;;1.65;;
5674;SDS011;2860;54.284;10.158;2023-10-09T14:18:08;1.73;;;1.73;;
5674;SDS011;2860;54.284;10.158;2023-10-09T14:20:36;1.65;;;1.60;;
5674;SDS011;2860;54.284;10.158;2023-10-09T14:23:02;1.70;;;1.60;;
5674;SDS011;2860;54.284;10.158;2023-10-09T14:25:37;1.60;;;1.60;;
5674;SDS011;2860;54.284;10.158;2023-10-09T14:28:05;1.92;;;1.80;;
5674;SDS011;2860;54.284;10.158;2023-10-09T14:30:35;1.58;;;1.58;;
5674;SDS011;2860;54.284;10.158;2023-10-09T14:33:10;1.58;;;1.58;;
5674;SDS011;2860;54.284;10.158;2023-10-09T14:35:39;4.65;;;4.55;;
5674;SDS011;2860;54.284;10.158;2023-10-09T14:38:05;14.43;;;13.10;;
5674;SDS011;2860;54.284;10.158;2023-10-09T14:40:40;36.17;;;32.33;;
5674;SDS011;2860;54.284;10.158;2023-10-09T14:43:13;17.55;;;16.05;;
5674;SDS011;2860;54.284;10.158;2023-10-09T14:45:45;1.92;;;1.92;;
5674;SDS011;2860;54.284;10.158;2023-10-09T14:48:13;3.65;;;3.47;;
5674;SDS011;2860;54.284;10.158;2023-10-09T14:50:45;18.00;;;16.80;;
5674;SDS011;2860;54.284;10.158;2023-10-09T14:53:14;4.18;;;4.07;;
5674;SDS011;2860;54.284;10.158;2023-10-09T14:55:40;12.38;;;11.30;;
5674;SDS011;2860;54.284;10.158;2023-10-09T14:58:10;5.45;;;2.80;;
5674;SDS011;2860;54.284;10.158;2023-10-09T15:00:36;5.20;;;4.78;;
5674;SDS011;2860;54.284;10.158;2023-10-09T15:03:03;8.63;;;5.50;;
5674;SDS011;2860;54.284;10.158;2023-10-09T15:05:29;4.00;;;3.90;;
5674;SDS011;2860;54.284;10.158;2023-10-09T15:07:58;5.38;;;5.07;;
5674;SDS011;2860;54.284;10.158;2023-10-09T15:10:25;4.57;;;4.38;;
5674;SDS011;2860;54.284;10.158;2023-10-09T15:12:53;2.72;;;2.65;;
5674;SDS011;2860;54.284;10.158;2023-10-09T15:15:18;4.22;;;1.80;;
5674;SDS011;2860;54.284;10.158;2023-10-09T15:17:50;4.13;;;4.00;;
5674;SDS011;2860;54.284;10.158;2023-10-09T15:20:15;5.07;;;4.85;;
5674;SDS011;2860;54.284;10.158;2023-10-09T15:22:41;20.85;;;14.05;;
5674;SDS011;2860;54.284;10.158;2023-10-09T15:25:07;5.07;;;4.97;;
5674;SDS011;2860;54.284;10.158;2023-10-09T15:27:33;4.22;;;4.00;;
5674;SDS011;2860;54.284;10.158;2023-10-09T15:29:59;4.18;;;4.05;;
5674;SDS011;2860;54.284;10.158;2023-10-09T15:32:24;3.10;;;3.00;;
5674;SDS011;2860;54.284;10.158;2023-10-09T15:34:56;2.30;;;2.30;;
5674;SDS011;2860;54.284;10.158;2023-10-09T15:37:23;5.03;;;4.68;;
5674;SDS011;2860;54.284;10.158;2023-10-09T15:39:48;4.63;;;3.90;;
5674;SDS011;2860;54.284;10.158;2023-10-09T15:42:15;3.25;;;3.10;;
5674;SDS011;2860;54.284;10.158;2023-10-09T15:44:41;2.70;;;2.17;;
5674;SDS011;2860;54.284;10.158;2023-10-09T15:47:07;4.70;;;4.60;;
5674;SDS011;2860;54.284;10.158;2023-10-09T15:49:37;3.95;;;3.60;;